Time;durP1;ratioP1;P1;durP2;ratioP2;P2;SDS_P1;SDS_P2;PMS_P1;PMS_P2;Temp;Humidity;BMP_temperature;BMP_pressure;BME280_temperature;BME280_humidity;BME280_pressure;Samples;Min_cycle;Max_cycle;Signal;HPM_P1;HPM_P2
2023/10/07 00:00:51;;;;;;;12.20;11.50;;;16.30;99.90;;;;;;4866597;29;20194;-48
2023/10/07 00:03:18;;;;;;;12.47;11.83;;;16.30;99.90;;;;;;4865466;29;20440;-47
2023/10/07 00:05:46;;;;;;;13.00;12.30;;;16.30;99.90;;;;;;4867012;29;20496;-49
2023/10/07 00:08:19;;;;;;;12.33;11.63;;;16.30;99.90;;;;;;4866713;29;20787;-49
2023/10/07 00:10:48;;;;;;;13.10;12.40;;;16.30;99.90;;;;;;4869870;29;20429;-46
2023/10/07 00:13:14;;;;;;;12.80;12.10;;;16.30;99.90;;;;;;4870651;29;20435;-49
2023/10/07 00:15:43;;;;;;;12.70;11.90;;;16.30;99.90;;;;;;4870252;29;21184;-47
2023/10/07 00:18:13;;;;;;;12.77;12.00;;;16.20;99.90;;;;;;4869734;29;20192;-48
2023/10/07 00:20:48;;;;;;;11.90;11.20;;;16.20;99.90;;;;;;4868416;29;20475;-50
2023/10/07 00:23:20;;;;;;;12.53;11.80;;;16.20;99.90;;;;;;4869202;29;20443;-50
2023/10/07 00:25:50;;;;;;;11.97;11.17;;;16.20;99.90;;;;;;4867694;29;20440;-52
2023/10/07 00:28:32;;;;;;;11.47;10.80;;;16.20;99.90;;;;;;4870161;29;20412;-49
2023/10/07 00:31:02;;;;;;;12.53;11.83;;;16.20;99.90;;;;;;4867994;29;20471;-50
2023/10/07 00:33:30;;;;;;;11.40;10.80;;;16.20;99.90;;;;;;4869523;29;20878;-50
2023/10/07 00:36:02;;;;;;;11.80;11.13;;;16.20;99.90;;;;;;4868987;29;20500;-52
2023/10/07 00:38:37;;;;;;;11.60;10.77;;;16.30;99.90;;;;;;4869892;29;20445;-47
2023/10/07 00:41:04;;;;;;;12.53;11.77;;;16.30;99.90;;;;;;4868081;29;20487;-50
2023/10/07 00:43:32;;;;;;;11.90;11.30;;;16.30;99.90;;;;;;4869237;29;20535;-48
2023/10/07 00:46:10;;;;;;;12.37;11.73;;;16.30;99.90;;;;;;4868247;29;20495;-51
2023/10/07 00:48:52;;;;;;;11.53;10.93;;;16.30;99.90;;;;;;4868468;29;20503;-49
2023/10/07 00:51:24;;;;;;;11.77;11.17;;;16.30;99.90;;;;;;4869414;29;20524;-49
2023/10/07 00:54:00;;;;;;;12.17;11.47;;;16.40;99.90;;;;;;4868391;29;20436;-47
2023/10/07 00:56:33;;;;;;;12.77;11.97;;;16.40;99.90;;;;;;4869474;29;20435;-50
2023/10/07 00:59:06;;;;;;;11.60;11.00;;;16.40;99.90;;;;;;4869151;29;20901;-48
2023/10/07 01:01:36;;;;;;;12.43;11.73;;;16.50;99.90;;;;;;4869392;29;20429;-50
2023/10/07 01:04:06;;;;;;;12.63;11.93;;;16.50;99.90;;;;;;4869250;29;20421;-52
2023/10/07 01:06:38;;;;;;;11.23;10.60;;;16.60;99.90;;;;;;4869606;29;20480;-51
2023/10/07 01:09:22;;;;;;;12.93;12.23;;;16.70;99.90;;;;;;4868920;29;20450;-50
2023/10/07 01:11:57;;;;;;;11.97;11.37;;;16.70;99.90;;;;;;4868433;29;20495;-46
2023/10/07 01:14:26;;;;;;;12.13;11.53;;;16.70;99.90;;;;;;4868778;29;20869;-48
2023/10/07 01:16:53;;;;;;;12.40;11.80;;;16.70;99.90;;;;;;4868967;29;20443;-50
2023/10/07 01:19:26;;;;;;;12.50;11.60;;;16.70;99.90;;;;;;4869152;29;20460;-46
2023/10/07 01:21:55;;;;;;;12.20;11.50;;;16.70;99.90;;;;;;4868985;29;20935;-48
2023/10/07 01:27:07;;;;;;;12.20;11.50;;;16.80;99.90;;;;;;4868976;29;20511;-49
2023/10/07 01:29:34;;;;;;;12.00;11.30;;;16.80;99.90;;;;;;4868811;29;20424;-45
2023/10/07 01:32:03;;;;;;;12.00;11.40;;;16.80;99.90;;;;;;4868262;29;20468;-50
2023/10/07 01:34:35;;;;;;;11.53;10.90;;;16.70;99.90;;;;;;4868747;29;20436;-52
2023/10/07 01:37:11;;;;;;;12.37;11.53;;;16.70;99.90;;;;;;4867568;29;20964;-45
2023/10/07 01:39:40;;;;;;;11.80;11.10;;;16.70;99.90;;;;;;4866631;29;20443;-45
2023/10/07 01:42:23;;;;;;;12.40;11.57;;;16.80;99.90;;;;;;4867456;29;20444;-49
2023/10/07 01:44:55;;;;;;;12.47;11.77;;;16.80;99.90;;;;;;4867670;29;20436;-47
2023/10/07 01:47:24;;;;;;;12.40;11.70;;;16.90;99.90;;;;;;4866741;29;20472;-52
2023/10/07 01:49:56;;;;;;;11.83;11.23;;;16.90;99.90;;;;;;4867296;29;20516;-52
2023/10/07 01:52:29;;;;;;;12.30;11.60;;;16.90;99.90;;;;;;4867232;29;20480;-45
2023/10/07 01:54:55;;;;;;;11.50;10.90;;;16.90;99.90;;;;;;4868242;29;20428;-48
2023/10/07 01:57:21;;;;;;;11.80;11.20;;;16.90;99.90;;;;;;4865369;29;20444;-47
2023/10/07 01:59:47;;;;;;;11.90;11.30;;;16.90;99.90;;;;;;4867847;29;20466;-52
2023/10/07 02:02:14;;;;;;;12.37;11.57;;;17.00;99.90;;;;;;4866679;29;20535;-46
2023/10/07 02:04:40;;;;;;;13.00;12.20;;;17.00;99.90;;;;;;4866800;29;20202;-49
2023/10/07 02:07:08;;;;;;;13.13;12.33;;;17.00;99.90;;;;;;4866763;29;20658;-48
2023/10/07 02:09:40;;;;;;;12.73;11.93;;;17.00;99.90;;;;;;4866686;29;20195;-49
2023/10/07 02:12:09;;;;;;;12.20;11.50;;;17.00;99.90;;;;;;4867579;29;20475;-46
2023/10/07 02:14:38;;;;;;;12.27;11.57;;;17.00;99.90;;;;;;4866053;29;20436;-48
2023/10/07 02:17:08;;;;;;;11.47;10.80;;;17.00;99.90;;;;;;4866992;29;20781;-48
2023/10/07 02:19:33;;;;;;;11.83;11.23;;;16.90;99.90;;;;;;4867078;29;20436;-45
2023/10/07 02:22:07;;;;;;;11.63;11.03;;;16.90;99.90;;;;;;4867292;29;20504;-47
2023/10/07 02:24:40;;;;;;;11.90;11.20;;;17.00;99.90;;;;;;4867936;29;20192;-50
2023/10/07 02:27:18;;;;;;;11.37;10.60;;;17.00;99.90;;;;;;4866957;29;20446;-48
2023/10/07 02:29:48;;;;;;;12.10;11.40;;;16.90;99.90;;;;;;4867124;29;20500;-49
2023/10/07 02:32:17;;;;;;;11.83;11.13;;;17.00;99.90;;;;;;4866199;29;20802;-47
2023/10/07 02:34:52;;;;;;;11.20;10.70;;;16.90;99.90;;;;;;4866977;29;20448;-43
2023/10/07 02:37:21;;;;;;;11.90;11.30;;;16.90;99.90;;;;;;4866840;29;20487;-47
2023/10/07 02:39:54;;;;;;;12.13;11.33;;;16.90;99.90;;;;;;4867025;29;20476;-48
2023/10/07 02:42:31;;;;;;;12.27;11.57;;;16.90;99.90;;;;;;4867317;29;20440;-46
2023/10/07 02:45:20;;;;;;;11.67;10.97;;;16.90;99.90;;;;;;4866426;29;20491;-49
2023/10/07 02:47:50;;;;;;;12.13;11.43;;;16.90;99.90;;;;;;4865566;29;20448;-49
2023/10/07 02:50:16;;;;;;;11.63;11.03;;;16.90;99.90;;;;;;4866352;29;20456;-42
2023/10/07 02:52:46;;;;;;;11.50;10.70;;;17.10;99.90;;;;;;4864991;29;20483;-48
2023/10/07 02:57:45;;;;;;;11.00;10.40;;;17.00;99.90;;;;;;4867742;29;20417;-48
2023/10/07 03:00:17;;;;;;;12.13;11.50;;;17.10;99.90;;;;;;4866213;29;20436;-48
2023/10/07 03:02:49;;;;;;;11.30;10.70;;;17.10;99.90;;;;;;4867047;29;20555;-48
2023/10/07 03:05:26;;;;;;;11.73;11.03;;;17.00;99.90;;;;;;4865877;29;20436;-47
2023/10/07 03:08:01;;;;;;;12.57;11.70;;;16.90;99.90;;;;;;4867136;29;20438;-50
2023/10/07 03:10:44;;;;;;;12.27;11.60;;;16.90;99.90;;;;;;4867184;29;20524;-47
2023/10/07 03:13:15;;;;;;;12.13;11.43;;;16.80;99.90;;;;;;4867019;29;20814;-44
2023/10/07 03:15:44;;;;;;;11.40;10.80;;;16.80;99.90;;;;;;4866964;29;20907;-48
2023/10/07 03:18:21;;;;;;;11.77;11.07;;;16.80;99.90;;;;;;4867081;29;20417;-50
2023/10/07 03:20:59;;;;;;;11.53;10.83;;;16.80;99.90;;;;;;4866188;29;20503;-47
2023/10/07 03:23:26;;;;;;;11.87;11.17;;;16.80;99.90;;;;;;4866402;29;20455;-47
2023/10/07 03:28:23;;;;;;;11.80;11.20;;;16.90;99.90;;;;;;4866838;29;20428;-46
2023/10/07 03:30:52;;;;;;;11.80;11.10;;;17.00;99.90;;;;;;4867186;29;20455;-50
2023/10/07 03:33:43;;;;;;;13.30;12.50;;;17.00;99.90;;;;;;4867380;29;20439;-51
2023/10/07 03:36:30;;;;;;;11.60;11.00;;;16.90;99.90;;;;;;4866946;29;20429;-50
2023/10/07 03:39:00;;;;;;;11.90;11.10;;;17.00;99.90;;;;;;4866168;29;20436;-49
2023/10/07 03:41:25;;;;;;;12.37;11.67;;;16.90;99.90;;;;;;4866808;29;20490;-44
2023/10/07 03:43:51;;;;;;;12.67;11.77;;;16.90;99.90;;;;;;4866813;29;20477;-43
2023/10/07 03:46:17;;;;;;;12.60;11.90;;;16.90;99.90;;;;;;4870591;29;20749;-48
2023/10/07 03:48:53;;;;;;;11.80;11.20;;;17.00;99.90;;;;;;4870845;29;20206;-49
2023/10/07 03:51:21;;;;;;;11.90;11.20;;;17.00;99.90;;;;;;4869844;29;20472;-51
2023/10/07 03:53:48;;;;;;;12.30;11.60;;;17.00;99.90;;;;;;4869869;29;20444;-47
2023/10/07 03:56:15;;;;;;;11.50;10.90;;;16.90;99.90;;;;;;4868275;29;20447;-47
2023/10/07 03:58:43;;;;;;;12.20;11.50;;;16.90;99.90;;;;;;4869933;29;20444;-46
2023/10/07 04:01:22;;;;;;;11.90;11.30;;;16.90;99.90;;;;;;4869630;29;20551;-47
2023/10/07 04:03:50;;;;;;;12.20;11.60;;;16.90;99.90;;;;;;4869307;29;20490;-47
2023/10/07 04:06:17;;;;;;;11.87;11.23;;;16.90;99.90;;;;;;4868108;29;21109;-50
2023/10/07 04:08:45;;;;;;;12.20;11.50;;;16.90;99.90;;;;;;4869274;29;20515;-48
2023/10/07 04:11:19;;;;;;;12.10;11.10;;;17.00;99.90;;;;;;4870074;29;20522;-46
2023/10/07 04:13:45;;;;;;;12.33;11.63;;;16.90;99.90;;;;;;4869043;29;21284;-48
2023/10/07 04:16:24;;;;;;;12.50;11.80;;;16.90;99.90;;;;;;4868921;29;20511;-49
2023/10/07 04:19:06;;;;;;;11.67;10.97;;;16.90;99.90;;;;;;4870234;29;20424;-51
2023/10/07 04:21:39;;;;;;;12.10;11.40;;;16.90;99.90;;;;;;4868813;29;20494;-44
2023/10/07 04:24:11;;;;;;;12.20;11.40;;;16.90;99.90;;;;;;4870031;29;20515;-47
2023/10/07 04:27:03;;;;;;;11.60;10.97;;;16.90;99.90;;;;;;4870353;29;20431;-52
2023/10/07 04:29:32;;;;;;;12.17;11.37;;;16.90;99.90;;;;;;4869580;29;20423;-47
2023/10/07 04:32:10;;;;;;;12.30;11.60;;;16.80;99.90;;;;;;4870013;29;20467;-48
2023/10/07 04:34:48;;;;;;;11.17;10.47;;;16.80;99.90;;;;;;4869385;29;20432;-50
2023/10/07 04:37:16;;;;;;;11.80;11.20;;;16.80;99.90;;;;;;4869757;29;20455;-52
2023/10/07 04:42:20;;;;;;;13.37;12.27;;;16.70;99.90;;;;;;4869884;29;20436;-43
2023/10/07 04:52:28;;;;;;;11.30;10.70;;;16.70;99.90;;;;;;4868934;29;20512;-46
2023/10/07 04:54:59;;;;;;;12.40;11.77;;;16.60;99.90;;;;;;4868342;29;20188;-47
2023/10/07 04:57:56;;;;;;;12.40;11.70;;;16.50;99.90;;;;;;4869732;29;20416;-48
2023/10/07 05:02:59;;;;;;;12.77;11.97;;;16.60;99.90;;;;;;4867916;29;20659;-46
2023/10/07 05:05:30;;;;;;;11.87;11.20;;;16.60;99.90;;;;;;4868656;29;20448;-46
2023/10/07 05:08:10;;;;;;;13.40;12.43;;;16.50;99.90;;;;;;4867704;29;20511;-50
2023/10/07 05:10:39;;;;;;;12.63;11.83;;;16.40;99.90;;;;;;4868966;29;21044;-45
2023/10/07 05:13:08;;;;;;;13.40;12.60;;;16.40;99.90;;;;;;4868600;29;20440;-51
2023/10/07 05:15:41;;;;;;;13.17;12.23;;;16.40;99.90;;;;;;4867774;29;20440;-50
2023/10/07 05:18:12;;;;;;;13.50;12.67;;;16.40;99.90;;;;;;4867764;29;20420;-47
2023/10/07 05:20:42;;;;;;;14.37;13.37;;;16.40;99.90;;;;;;4867017;29;20916;-50
2023/10/07 05:23:14;;;;;;;16.40;14.90;;;16.40;99.90;;;;;;4867296;29;21161;-47
2023/10/07 05:25:48;;;;;;;17.00;15.70;;;16.40;99.90;;;;;;4865901;29;20444;-41
2023/10/07 05:28:20;;;;;;;15.50;14.40;;;16.40;99.90;;;;;;4865734;29;20440;-42
2023/10/07 05:30:52;;;;;;;16.97;15.57;;;16.30;99.90;;;;;;4866141;29;20859;-40
2023/10/07 05:33:25;;;;;;;16.30;14.97;;;16.30;99.90;;;;;;4866056;29;20814;-40
2023/10/07 05:36:13;;;;;;;15.00;13.87;;;16.30;99.90;;;;;;4862799;29;20440;-41
2023/10/07 05:38:44;;;;;;;16.57;15.17;;;16.30;99.90;;;;;;4865074;29;21778;-40
2023/10/07 05:41:14;;;;;;;16.17;14.83;;;16.30;99.90;;;;;;4866743;29;20480;-39
2023/10/07 05:43:44;;;;;;;15.70;14.40;;;16.40;99.90;;;;;;4867708;29;20467;-40
2023/10/07 05:46:10;;;;;;;16.50;15.23;;;16.40;99.90;;;;;;4867091;29;20444;-44
2023/10/07 05:48:38;;;;;;;15.70;14.40;;;16.40;99.90;;;;;;4867741;29;20436;-40
2023/10/07 05:51:08;;;;;;;14.87;13.67;;;16.50;99.90;;;;;;4864604;29;20471;-42
2023/10/07 05:53:48;;;;;;;15.37;13.87;;;16.40;99.90;;;;;;4864198;29;20436;-40
2023/10/07 05:56:14;;;;;;;14.00;13.03;;;16.40;99.90;;;;;;4866520;29;20562;-42
2023/10/07 05:58:40;;;;;;;13.43;12.53;;;16.50;99.90;;;;;;4865493;29;20459;-41
2023/10/07 06:01:11;;;;;;;13.57;12.67;;;16.60;99.90;;;;;;4865445;29;20447;-40
2023/10/07 06:03:37;;;;;;;12.50;11.80;;;16.60;99.90;;;;;;4862373;29;20455;-40
2023/10/07 06:06:04;;;;;;;13.20;12.40;;;16.50;99.90;;;;;;4864713;29;20444;-40
2023/10/07 06:08:32;;;;;;;13.43;12.63;;;16.60;99.90;;;;;;4863467;29;20188;-40
2023/10/07 06:10:59;;;;;;;13.40;12.50;;;16.70;99.90;;;;;;4866389;29;20443;-40
2023/10/07 06:13:26;;;;;;;13.40;12.37;;;16.80;99.90;;;;;;4867012;29;20987;-43
2023/10/07 06:15:55;;;;;;;13.47;12.67;;;16.70;99.90;;;;;;4866290;29;20535;-41
2023/10/07 06:18:22;;;;;;;13.00;12.20;;;16.70;99.90;;;;;;4865376;29;20433;-43
2023/10/07 06:20:48;;;;;;;12.17;11.47;;;16.80;99.90;;;;;;4866299;29;21264;-40
2023/10/07 06:23:15;;;;;;;12.33;11.60;;;16.80;99.90;;;;;;4865493;29;20706;-43
2023/10/07 06:25:48;;;;;;;12.20;11.60;;;16.80;99.90;;;;;;4866330;29;21248;-41
2023/10/07 06:28:24;;;;;;;12.23;11.53;;;17.00;99.90;;;;;;4866057;29;20421;-41
2023/10/07 06:30:49;;;;;;;13.37;12.47;;;17.00;99.90;;;;;;4864351;29;20499;-41
2023/10/07 06:33:15;;;;;;;12.33;11.57;;;17.00;99.90;;;;;;4864694;29;20431;-41
2023/10/07 06:35:41;;;;;;;13.20;12.40;;;17.10;99.90;;;;;;4864514;29;20589;-40
2023/10/07 06:38:06;;;;;;;12.80;12.10;;;17.20;99.90;;;;;;4863065;29;20184;-42
2023/10/07 06:40:35;;;;;;;11.90;11.30;;;17.20;99.90;;;;;;4864469;29;20472;-42
2023/10/07 06:43:01;;;;;;;11.63;11.03;;;17.30;99.90;;;;;;4864045;29;20235;-42
2023/10/07 06:45:38;;;;;;;12.20;11.50;;;17.20;99.90;;;;;;4864673;29;20415;-41
2023/10/07 06:48:09;;;;;;;12.37;11.67;;;17.30;99.90;;;;;;4866358;29;20938;-41
2023/10/07 06:50:35;;;;;;;11.43;10.73;;;17.30;99.90;;;;;;4862803;29;20459;-42
2023/10/07 06:53:02;;;;;;;11.53;10.93;;;17.30;99.90;;;;;;4866198;29;20472;-40
2023/10/07 06:55:35;;;;;;;11.83;11.23;;;17.30;99.90;;;;;;4866394;29;20542;-43
2023/10/07 06:58:03;;;;;;;12.60;11.90;;;17.30;99.90;;;;;;4864693;29;20433;-39
2023/10/07 07:00:46;;;;;;;12.40;11.40;;;17.50;99.90;;;;;;4866171;29;20420;-42
2023/10/07 07:03:19;;;;;;;11.43;10.80;;;17.50;99.90;;;;;;4866515;29;20852;-43
2023/10/07 07:05:50;;;;;;;12.10;11.40;;;17.70;99.90;;;;;;4865973;29;20461;-41
2023/10/07 07:08:22;;;;;;;12.07;11.37;;;17.80;99.90;;;;;;4863306;29;20567;-39
2023/10/07 07:10:50;;;;;;;12.30;11.60;;;18.00;99.90;;;;;;4864177;29;21090;-41
2023/10/07 07:13:22;;;;;;;12.30;11.50;;;18.20;99.90;;;;;;4864631;29;20492;-41
2023/10/07 07:16:08;;;;;;;12.27;11.60;;;18.30;99.90;;;;;;4864440;29;20779;-40
2023/10/07 07:18:34;;;;;;;12.87;12.07;;;18.30;99.90;;;;;;4864311;29;20424;-43
2023/10/07 07:21:31;;;;;;;12.47;11.70;;;18.30;99.90;;;;;;4864767;29;20416;-41
2023/10/07 07:23:58;;;;;;;11.40;10.60;;;18.40;99.90;;;;;;4866376;29;20409;-40
2023/10/07 07:26:23;;;;;;;12.30;11.70;;;18.40;99.90;;;;;;4865077;29;20444;-41
2023/10/07 07:28:54;;;;;;;13.10;12.33;;;18.40;99.90;;;;;;4865165;29;20963;-41
2023/10/07 07:31:25;;;;;;;12.30;11.60;;;18.30;99.90;;;;;;4865294;29;20306;-41
2023/10/07 07:33:51;;;;;;;12.80;12.10;;;18.30;99.90;;;;;;4865935;29;20456;-45
2023/10/07 07:39:06;;;;;;;12.50;11.77;;;18.50;99.90;;;;;;4863868;29;20253;-42
2023/10/07 07:41:34;;;;;;;12.70;12.00;;;18.50;99.90;;;;;;4865138;29;20483;-41
2023/10/07 07:44:02;;;;;;;12.17;11.47;;;18.60;99.90;;;;;;4864399;29;20436;-40
2023/10/07 07:46:29;;;;;;;12.40;11.70;;;18.80;99.90;;;;;;4862499;29;20791;-41
2023/10/07 07:49:06;;;;;;;12.00;11.30;;;19.00;99.90;;;;;;4864335;29;20519;-44
2023/10/07 07:51:37;;;;;;;13.30;12.43;;;19.10;99.90;;;;;;4864243;29;20470;-45
2023/10/07 07:54:07;;;;;;;12.07;11.27;;;19.20;99.90;;;;;;4864260;29;20436;-43
2023/10/07 07:56:38;;;;;;;12.27;11.60;;;19.20;99.90;;;;;;4864703;29;20420;-41
2023/10/07 07:59:13;;;;;;;12.87;12.17;;;19.20;99.90;;;;;;4862514;29;20444;-41
2023/10/07 08:01:44;;;;;;;12.57;11.87;;;19.20;99.90;;;;;;4863017;29;20495;-41
2023/10/07 08:04:16;;;;;;;12.40;11.60;;;19.10;99.90;;;;;;4864100;29;20428;-44
2023/10/07 08:06:42;;;;;;;12.30;11.60;;;19.00;99.90;;;;;;4862662;29;20966;-42
2023/10/07 08:09:10;;;;;;;12.80;12.00;;;19.00;99.90;;;;;;4864165;29;20434;-42
2023/10/07 08:11:35;;;;;;;12.67;11.97;;;18.90;99.90;;;;;;4864064;29;20452;-41
2023/10/07 08:14:10;;;;;;;12.20;11.50;;;18.80;99.90;;;;;;4865984;29;20424;-40
2023/10/07 08:16:52;;;;;;;12.70;11.90;;;18.60;99.90;;;;;;4865374;29;20654;-40
2023/10/07 08:19:20;;;;;;;12.33;11.63;;;18.50;99.90;;;;;;4865837;29;20440;-40
2023/10/07 08:21:51;;;;;;;12.93;11.87;;;18.20;99.90;;;;;;4865723;29;20569;-43
2023/10/07 08:24:18;;;;;;;12.87;12.17;;;17.70;99.90;;;;;;4866022;29;20424;-40
2023/10/07 08:26:48;;;;;;;12.27;11.57;;;17.50;99.90;;;;;;4865753;29;20451;-40
2023/10/07 08:29:32;;;;;;;12.57;11.80;;;17.50;99.90;;;;;;4866008;29;20451;-42
2023/10/07 08:32:21;;;;;;;12.87;11.97;;;17.40;99.90;;;;;;4867308;29;20472;-40
2023/10/07 08:34:47;;;;;;;12.70;11.80;;;17.20;99.90;;;;;;4866095;29;20483;-44
2023/10/07 08:37:15;;;;;;;14.07;13.20;;;17.10;1.00;;;;;;4866910;29;21254;-41
2023/10/07 08:39:44;;;;;;;14.63;13.80;;;16.90;1.00;;;;;;4867685;29;20412;-44
2023/10/07 08:42:24;;;;;;;13.90;13.10;;;16.90;1.00;;;;;;4866648;29;21174;-43
2023/10/07 08:44:52;;;;;;;12.90;12.20;;;16.80;1.00;;;;;;4868190;29;20994;-41
2023/10/07 08:47:22;;;;;;;13.20;12.30;;;16.60;1.00;;;;;;4867499;29;20439;-46
2023/10/07 08:49:49;;;;;;;13.93;13.00;;;16.60;1.00;;;;;;4867617;29;20432;-40
2023/10/07 08:52:18;;;;;;;12.80;11.97;;;16.60;1.00;;;;;;4866184;29;20820;-41
2023/10/07 08:54:47;;;;;;;12.57;11.70;;;16.60;1.00;;;;;;4867026;29;21203;-40
2023/10/07 08:57:19;;;;;;;12.70;12.00;;;16.80;1.00;;;;;;4867705;29;20429;-40
2023/10/07 08:59:52;;;;;;;13.20;12.40;;;16.90;1.00;;;;;;4868071;29;20485;-40
2023/10/07 09:02:27;;;;;;;13.07;12.27;;;17.00;1.00;;;;;;4867973;29;20436;-47
2023/10/07 09:04:57;;;;;;;12.90;12.10;;;17.20;1.00;;;;;;4868262;29;20424;-47
2023/10/07 09:07:23;;;;;;;11.23;10.63;;;17.30;1.00;;;;;;4866902;29;20445;-51
2023/10/07 09:09:49;;;;;;;12.60;11.90;;;17.40;1.00;;;;;;4867723;29;20785;-47
2023/10/07 09:12:15;;;;;;;12.00;11.20;;;17.50;1.00;;;;;;4868267;29;20472;-47
2023/10/07 09:14:52;;;;;;;12.90;12.10;;;17.50;1.00;;;;;;4868122;29;20176;-45
2023/10/07 09:17:22;;;;;;;12.93;12.03;;;17.70;1.00;;;;;;4868425;29;20199;-45
2023/10/07 09:19:57;;;;;;;13.03;12.13;;;17.80;1.00;;;;;;4869120;29;20484;-49
2023/10/07 09:22:24;;;;;;;12.50;11.70;;;18.00;99.90;;;;;;4869219;29;20589;-48
2023/10/07 09:24:54;;;;;;;12.17;11.47;;;18.00;99.90;;;;;;4869387;29;21051;-50
2023/10/07 09:27:36;;;;;;;12.17;11.47;;;18.00;99.90;;;;;;4868235;29;20428;-46
2023/10/07 09:32:55;;;;;;;12.63;11.80;;;18.20;99.90;;;;;;4868309;29;20486;-47
2023/10/07 09:35:22;;;;;;;12.10;11.40;;;18.20;99.90;;;;;;4868312;29;20429;-49
2023/10/07 09:37:54;;;;;;;12.50;11.70;;;18.20;99.90;;;;;;4868276;29;20439;-51
2023/10/07 09:43:13;;;;;;;11.63;11.03;;;18.30;99.90;;;;;;4866224;29;20432;-48
2023/10/07 09:45:39;;;;;;;11.47;10.87;;;18.40;99.90;;;;;;4868106;29;20436;-49
2023/10/07 09:48:09;;;;;;;12.30;11.50;;;18.60;99.90;;;;;;4868448;29;20451;-49
2023/10/07 09:50:37;;;;;;;11.80;11.10;;;18.50;99.90;;;;;;4868228;29;20421;-49
2023/10/07 09:53:20;;;;;;;12.13;11.43;;;18.50;99.90;;;;;;4864462;29;20467;-47
2023/10/07 09:56:21;;;;;;;11.37;10.73;;;18.60;99.90;;;;;;4867336;29;20957;-47
2023/10/07 09:59:15;;;;;;;11.57;11.00;;;18.70;99.90;;;;;;4867694;29;21416;-47
2023/10/07 10:02:07;;;;;;;11.90;11.20;;;18.70;99.90;;;;;;4866594;29;20444;-51
2023/10/07 10:04:51;;;;;;;11.53;10.83;;;18.80;99.90;;;;;;4867219;29;20433;-41
2023/10/07 10:07:39;;;;;;;12.80;12.07;;;18.80;99.90;;;;;;4866558;29;20525;-43
2023/10/07 10:10:07;;;;;;;11.90;11.20;;;19.00;99.90;;;;;;4868121;29;21520;-40
2023/10/07 10:17:55;;;;;;;12.37;11.67;;;19.50;99.90;;;;;;4866640;29;20451;-40
2023/10/07 10:20:27;;;;;;;11.63;10.83;;;19.70;99.90;;;;;;4863563;29;20939;-43
2023/10/07 10:22:57;;;;;;;11.23;10.63;;;19.80;99.90;;;;;;4867483;29;20425;-42
2023/10/07 10:25:36;;;;;;;11.60;10.80;;;19.90;99.90;;;;;;4867293;29;20483;-41
2023/10/07 10:28:03;;;;;;;12.70;11.83;;;19.80;99.90;;;;;;4866960;29;20866;-43
2023/10/07 10:30:30;;;;;;;12.10;11.50;;;19.70;99.90;;;;;;4865293;29;20919;-44
2023/10/07 10:33:00;;;;;;;12.67;11.97;;;19.70;99.90;;;;;;4865408;29;20557;-41
2023/10/07 10:35:27;;;;;;;12.83;12.03;;;19.70;99.90;;;;;;4866831;29;20928;-42
2023/10/07 10:37:56;;;;;;;12.80;11.80;;;19.60;99.90;;;;;;4866050;29;20432;-42
2023/10/07 10:40:23;;;;;;;12.03;11.33;;;19.50;99.90;;;;;;4865870;29;20490;-42
2023/10/07 10:42:49;;;;;;;12.47;11.77;;;19.50;99.90;;;;;;4865933;29;21649;-41
2023/10/07 10:45:20;;;;;;;12.70;11.90;;;19.60;99.90;;;;;;4866960;29;20429;-42
2023/10/07 10:47:53;;;;;;;12.90;12.10;;;19.60;99.90;;;;;;4863960;29;20869;-42
2023/10/07 10:50:23;;;;;;;12.00;11.40;;;19.70;99.90;;;;;;4866994;29;20439;-44
2023/10/07 10:52:50;;;;;;;11.93;11.33;;;19.50;99.90;;;;;;4864124;29;20587;-43
2023/10/07 10:55:16;;;;;;;12.00;11.17;;;19.60;99.90;;;;;;4865191;29;20456;-42
2023/10/07 10:57:43;;;;;;;13.03;12.07;;;19.60;99.90;;;;;;4865315;29;20421;-41
2023/10/07 11:00:24;;;;;;;12.97;12.07;;;19.60;99.90;;;;;;4866504;29;20478;-41
2023/10/07 11:02:51;;;;;;;11.67;10.87;;;19.50;99.90;;;;;;4865793;29;20474;-41
2023/10/07 11:05:18;;;;;;;13.03;12.23;;;19.30;99.90;;;;;;4866509;29;20450;-41
2023/10/07 11:07:47;;;;;;;11.67;11.00;;;19.40;99.90;;;;;;4858962;29;20444;-43
2023/10/07 11:10:22;;;;;;;11.47;10.87;;;19.50;99.90;;;;;;4865400;29;20501;-44
2023/10/07 11:12:52;;;;;;;12.20;11.40;;;19.60;99.90;;;;;;4866716;29;20470;-41
2023/10/07 11:15:24;;;;;;;12.17;11.47;;;19.40;99.90;;;;;;4863891;29;20447;-40
2023/10/07 11:17:58;;;;;;;12.60;11.90;;;19.50;99.90;;;;;;4866704;29;20452;-41
2023/10/07 11:20:25;;;;;;;11.57;10.97;;;19.50;99.90;;;;;;4866355;29;20857;-44
2023/10/07 11:22:53;;;;;;;12.10;11.30;;;19.50;99.90;;;;;;4866702;29;20451;-47
2023/10/07 11:25:18;;;;;;;12.57;11.80;;;19.30;99.90;;;;;;4866796;29;20919;-41
2023/10/07 11:27:46;;;;;;;12.57;11.80;;;19.30;99.90;;;;;;4866935;29;20444;-40
2023/10/07 11:30:14;;;;;;;12.70;11.90;;;19.20;99.90;;;;;;4866537;29;20646;-42
2023/10/07 11:32:40;;;;;;;11.70;11.10;;;19.20;99.90;;;;;;4866828;29;20570;-43
2023/10/07 11:35:30;;;;;;;12.50;11.80;;;19.30;99.90;;;;;;4865639;29;20455;-41
2023/10/07 11:38:02;;;;;;;11.67;11.07;;;19.30;99.90;;;;;;4881103;29;20436;-44
2023/10/07 11:40:29;;;;;;;11.87;11.17;;;19.30;99.90;;;;;;4866075;29;21570;-41
2023/10/07 11:42:58;;;;;;;11.47;10.77;;;19.40;99.90;;;;;;4865780;29;20491;-45
2023/10/07 11:45:26;;;;;;;11.80;11.20;;;19.40;99.90;;;;;;4866595;29;20444;-46
2023/10/07 11:47:56;;;;;;;12.40;11.70;;;19.50;99.90;;;;;;4866759;29;20784;-40
2023/10/07 11:50:29;;;;;;;12.50;11.80;;;19.50;99.90;;;;;;4866241;29;20428;-41
2023/10/07 11:52:55;;;;;;;12.13;11.47;;;19.60;99.90;;;;;;4866623;29;20503;-47
2023/10/07 11:55:20;;;;;;;12.67;11.97;;;19.70;99.90;;;;;;4865077;29;20440;-41
2023/10/07 11:57:46;;;;;;;11.73;11.03;;;19.80;99.90;;;;;;4865499;29;20445;-41
2023/10/07 12:00:23;;;;;;;10.33;9.73;;;19.80;99.90;;;;;;4862967;29;20677;-44
2023/10/07 12:02:52;;;;;;;10.73;10.00;;;20.00;99.90;;;;;;4865857;29;21034;-42
2023/10/07 12:05:18;;;;;;;11.67;11.03;;;19.90;99.90;;;;;;4863151;29;20569;-41
2023/10/07 12:07:47;;;;;;;10.93;10.43;;;19.90;99.90;;;;;;4862748;29;20436;-46
2023/10/07 12:10:15;;;;;;;11.87;11.17;;;20.00;99.90;;;;;;4869400;29;20445;-40
2023/10/07 12:12:42;;;;;;;11.50;10.80;;;20.10;99.90;;;;;;4870141;29;20471;-41
2023/10/07 12:15:18;;;;;;;12.13;11.43;;;20.10;99.90;;;;;;4867311;29;20412;-43
2023/10/07 12:17:44;;;;;;;11.60;11.00;;;20.20;99.90;;;;;;4870220;29;20411;-40
2023/10/07 12:20:13;;;;;;;10.93;10.43;;;20.10;99.90;;;;;;4868757;29;20452;-41
2023/10/07 12:22:43;;;;;;;12.17;11.50;;;20.20;99.90;;;;;;4868960;29;20773;-44
2023/10/07 12:25:15;;;;;;;12.00;11.40;;;20.20;99.90;;;;;;4869788;29;20814;-39
2023/10/07 12:27:48;;;;;;;12.10;11.40;;;20.30;99.90;;;;;;4869306;29;20424;-42
2023/10/07 12:30:21;;;;;;;12.43;11.70;;;20.20;99.90;;;;;;4867473;29;20484;-40
2023/10/07 12:32:50;;;;;;;11.17;10.67;;;20.30;99.90;;;;;;4867346;29;20468;-43
2023/10/07 12:35:17;;;;;;;12.30;11.40;;;20.20;99.90;;;;;;4865020;29;20452;-41
2023/10/07 12:37:51;;;;;;;11.50;10.80;;;20.20;99.90;;;;;;4867177;29;20778;-44
2023/10/07 12:40:17;;;;;;;11.50;10.80;;;20.20;99.90;;;;;;4867974;29;20471;-40
2023/10/07 12:42:51;;;;;;;10.93;10.33;;;20.20;99.90;;;;;;4868617;29;20471;-42
2023/10/07 12:45:17;;;;;;;12.33;11.63;;;20.20;99.90;;;;;;4870077;29;20423;-43
2023/10/07 12:47:44;;;;;;;11.30;10.63;;;20.20;99.90;;;;;;4867466;29;20444;-45
2023/10/07 12:50:29;;;;;;;11.77;11.07;;;20.20;99.90;;;;;;4869146;29;20264;-45
2023/10/07 12:52:57;;;;;;;11.93;11.33;;;20.20;99.90;;;;;;4867769;29;20500;-49
2023/10/07 12:55:29;;;;;;;11.97;11.37;;;20.20;99.90;;;;;;4869958;29;20424;-45
2023/10/07 12:57:55;;;;;;;12.43;11.77;;;20.30;99.90;;;;;;4870026;29;20955;-49
2023/10/07 13:00:22;;;;;;;11.67;11.07;;;20.20;99.90;;;;;;4868907;29;20432;-48
2023/10/07 13:02:55;;;;;;;12.10;11.43;;;20.30;99.90;;;;;;4869291;29;20180;-47
2023/10/07 13:05:23;;;;;;;11.37;10.47;;;20.30;99.90;;;;;;4868023;29;20455;-47
2023/10/07 13:07:56;;;;;;;11.93;11.33;;;20.30;99.90;;;;;;4867378;29;20455;-51
2023/10/07 13:10:22;;;;;;;12.47;11.83;;;20.20;99.90;;;;;;4869307;29;20789;-49
2023/10/07 13:12:49;;;;;;;11.80;11.20;;;20.10;99.90;;;;;;4865480;29;20486;-46
2023/10/07 13:15:16;;;;;;;11.43;10.70;;;20.20;99.90;;;;;;4868939;29;20187;-48
2023/10/07 13:17:45;;;;;;;12.30;11.70;;;20.10;99.90;;;;;;4867406;29;20499;-46
2023/10/07 13:20:20;;;;;;;11.67;11.07;;;20.10;99.90;;;;;;4869296;29;20431;-48
2023/10/07 13:22:52;;;;;;;12.07;11.40;;;20.10;99.90;;;;;;4866442;29;20957;-47